Time;durP1;ratioP1;P1;durP2;ratioP2;P2;SDS_P1;SDS_P2;PMS_P1;PMS_P2;Temp;Humidity;BMP_temperature;BMP_pressure;BME280_temperature;BME280_humidity;BME280_pressure;Samples;Min_cycle;Max_cycle;Signal;HPM_P1;HPM_P2
2021/12/10 00:01:18;;;;;;;0.20;0.10;;;8.50;99.90;;;;;;20748921;28;20234;-73
2021/12/10 00:11:30;;;;;;;0.20;0.00;;;8.60;99.90;;;;;;20747769;28;20222;-73
2021/12/10 00:21:36;;;;;;;0.20;0.00;;;8.70;99.90;;;;;;20747643;28;20194;-72
2021/12/10 00:31:47;;;;;;;0.20;0.10;;;8.50;99.90;;;;;;20744971;28;20633;-72
2021/12/10 00:41:51;;;;;;;0.20;0.10;;;8.50;99.90;;;;;;20745462;28;20572;-72
2021/12/10 00:51:57;;;;;;;0.20;0.10;;;8.50;99.90;;;;;;20740754;28;20218;-74
2021/12/10 01:02:01;;;;;;;0.20;0.10;;;9.00;99.90;;;;;;20733646;22;20298;-67
2021/12/10 01:12:09;;;;;;;0.20;0.10;;;9.10;99.90;;;;;;20667990;28;20227;-65
2021/12/10 01:32:39;;;;;;;0.20;0.00;;;9.40;99.90;;;;;;20741138;28;20313;-66
2021/12/10 01:42:46;;;;;;;0.20;0.10;;;9.90;99.90;;;;;;20740568;28;20226;-66
2021/12/10 01:52:53;;;;;;;0.20;0.10;;;10.00;99.90;;;;;;20721568;28;20277;-67
2021/12/10 02:02:57;;;;;;;0.20;0.00;;;9.90;99.90;;;;;;20720819;22;20309;-75
2021/12/10 02:13:04;;;;;;;0.20;0.00;;;10.50;99.90;;;;;;20655977;28;20227;-74
2021/12/10 02:23:32;;;;;;;0.20;0.07;;;10.90;99.90;;;;;;20654848;28;20213;-73
2021/12/10 02:33:35;;;;;;;0.20;0.10;;;11.10;99.90;;;;;;20637669;28;20548;-75
2021/12/10 02:43:41;;;;;;;0.20;0.10;;;11.40;99.90;;;;;;20637101;28;20196;-75
2021/12/10 02:53:46;;;;;;;0.20;0.10;;;11.30;99.90;;;;;;20654779;28;20581;-75
2021/12/10 03:03:51;;;;;;;0.20;0.10;;;11.40;99.90;;;;;;20740601;23;20268;-70
2021/12/10 03:13:56;;;;;;;0.20;0.10;;;11.50;99.90;;;;;;20816315;28;20325;-71
2021/12/10 03:24:01;;;;;;;0.20;0.00;;;11.80;99.90;;;;;;20818622;28;20293;-70
2021/12/10 03:34:06;;;;;;;0.20;0.10;;;11.80;99.90;;;;;;20831401;28;20218;-71
2021/12/10 03:44:11;;;;;;;0.20;0.10;;;12.10;99.90;;;;;;20829647;28;20293;-69
2021/12/10 03:54:17;;;;;;;0.67;0.67;;;12.10;99.90;;;;;;20829621;28;20221;-70
2021/12/10 04:04:27;;;;;;;3.40;0.30;;;12.40;99.90;;;;;;20799100;23;20332;-72
2021/12/10 04:14:32;;;;;;;0.20;0.10;;;12.70;99.90;;;;;;20748739;28;20236;-76
2021/12/10 04:24:41;;;;;;;0.20;0.00;;;12.80;99.90;;;;;;20746822;28;20199;-73
2021/12/10 04:34:45;;;;;;;0.20;0.10;;;12.70;99.90;;;;;;20727745;28;20265;-71
2021/12/10 04:44:54;;;;;;;0.20;0.10;;;12.90;99.90;;;;;;20726804;28;20390;-73
2021/12/10 04:54:59;;;;;;;0.30;0.20;;;13.20;99.90;;;;;;20746829;28;20222;-71
2021/12/10 05:05:05;;;;;;;0.20;0.10;;;13.30;99.90;;;;;;20743156;28;20301;-72
2021/12/10 05:15:14;;;;;;;0.20;0.10;;;13.40;99.90;;;;;;20690496;28;20227;-75
2021/12/10 05:25:22;;;;;;;0.20;0.00;;;13.60;99.90;;;;;;20722955;28;20602;-73
2021/12/10 05:35:26;;;;;;;0.20;0.10;;;13.80;99.90;;;;;;20723250;28;20224;-72
2021/12/10 05:45:31;;;;;;;0.20;0.10;;;13.70;99.90;;;;;;20738322;28;20199;-75
2021/12/10 05:55:38;;;;;;;0.20;0.10;;;13.80;99.90;;;;;;20721123;28;20333;-72
2021/12/10 06:05:43;;;;;;;0.20;0.00;;;13.80;99.90;;;;;;20737997;28;20285;-73
2021/12/10 06:15:47;;;;;;;0.20;0.10;;;13.70;99.90;;;;;;20679836;28;20310;-72
2021/12/10 06:25:53;;;;;;;0.20;0.10;;;13.80;99.90;;;;;;20655860;28;20195;-70
2021/12/10 06:36:05;;;;;;;0.20;0.10;;;13.70;99.90;;;;;;20655283;28;20603;-74
2021/12/10 06:46:12;;;;;;;0.20;0.00;;;13.80;99.90;;;;;;20636828;28;20294;-71
2021/12/10 06:56:18;;;;;;;0.20;0.00;;;13.90;99.90;;;;;;20657215;28;20622;-75
2021/12/10 07:06:24;;;;;;;0.20;0.10;;;13.90;99.90;;;;;;20671118;28;20707;-69
2021/12/10 07:16:30;;;;;;;0.20;0.10;;;13.90;99.90;;;;;;20730029;28;20226;-73
2021/12/10 07:26:36;;;;;;;0.20;0.00;;;14.00;99.90;;;;;;20729739;28;20290;-73
2021/12/10 07:36:41;;;;;;;0.20;0.03;;;14.10;99.90;;;;;;20746939;28;20245;-77
2021/12/10 07:46:48;;;;;;;0.20;0.03;;;14.20;99.90;;;;;;20746091;28;20195;-71
2021/12/10 07:56:54;;;;;;;0.20;0.10;;;14.10;99.90;;;;;;20745033;28;20699;-71
2021/12/10 08:07:13;;;;;;;0.20;0.10;;;14.10;99.90;;;;;;20746383;28;20317;-72
2021/12/10 08:17:19;;;;;;;0.20;0.07;;;14.20;99.90;;;;;;20656030;28;20251;-71
2021/12/10 08:27:24;;;;;;;0.20;0.10;;;14.20;99.90;;;;;;20662736;28;20199;-73
2021/12/10 08:37:28;;;;;;;0.20;0.10;;;14.30;99.90;;;;;;20646332;28;20581;-71
2021/12/10 08:47:41;;;;;;;0.20;0.10;;;14.30;99.90;;;;;;20661202;28;20197;-73
2021/12/10 08:57:46;;;;;;;0.20;0.10;;;14.40;99.90;;;;;;20643148;28;20215;-72
2021/12/10 09:07:52;;;;;;;0.20;0.00;;;14.40;99.90;;;;;;20690998;28;20583;-73
2021/12/10 09:28:17;;;;;;;0.20;0.10;;;14.70;99.90;;;;;;21729829;23;20234;-70
2021/12/10 09:38:24;;;;;;;0.20;0.10;;;14.80;99.90;;;;;;20725580;28;20313;-71
2021/12/10 09:48:29;;;;;;;0.20;0.10;;;15.00;99.90;;;;;;20723629;28;20272;-71
2021/12/10 09:58:33;;;;;;;0.20;0.10;;;15.20;99.90;;;;;;20722949;28;20249;-70
2021/12/10 10:08:42;;;;;;;0.20;0.00;;;15.30;99.90;;;;;;20723330;28;20203;-71
2021/12/10 10:18:48;;;;;;;0.20;0.10;;;15.60;99.90;;;;;;20747030;28;20241;-70
2021/12/10 10:29:38;;;;;;;0.20;0.10;;;15.80;99.90;;;;;;20796730;28;20648;-69
2021/12/10 10:40:26;;;;;;;0.20;0.10;;;16.50;99.90;;;;;;20799032;28;20198;-68
2021/12/10 10:51:17;;;;;;;0.20;0.10;;;16.70;99.90;;;;;;20799364;28;20237;-71
2021/12/10 11:02:07;;;;;;;0.20;0.10;;;16.50;99.90;;;;;;20799224;28;20206;-69
2021/12/10 11:13:09;;;;;;;0.20;0.10;;;17.30;99.90;;;;;;20798735;28;20698;-67
2021/12/10 11:24:07;;;;;;;0.20;0.20;;;17.30;99.90;;;;;;20798351;28;20691;-67
2021/12/10 11:34:56;;;;;;;0.20;0.10;;;17.80;99.90;;;;;;20797202;28;20228;-67
2021/12/10 11:45:44;;;;;;;0.20;0.07;;;17.70;99.90;;;;;;20803397;28;20194;-69
2021/12/10 11:56:33;;;;;;;0.20;0.10;;;17.40;99.90;;;;;;20812688;28;20230;-67
2021/12/10 12:07:25;;;;;;;0.20;0.10;;;18.10;99.90;;;;;;20810453;28;20198;-70
2021/12/10 12:18:24;;;;;;;0.20;0.10;;;17.60;99.90;;;;;;20809845;28;20291;-73
2021/12/10 12:29:12;;;;;;;0.20;0.10;;;17.50;99.90;;;;;;20809237;28;20261;-71
2021/12/10 12:40:01;;;;;;;0.20;0.10;;;17.50;99.90;;;;;;22337095;23;20251;-71
2021/12/10 12:50:46;;;;;;;0.20;0.10;;;17.80;99.90;;;;;;20698662;28;20317;-72
2021/12/10 13:01:37;;;;;;;0.20;0.10;;;18.00;99.90;;;;;;20681513;28;20775;-72
2021/12/10 13:12:33;;;;;;;0.20;0.10;;;17.90;99.90;;;;;;20676031;28;20593;-73
2021/12/10 13:23:22;;;;;;;0.20;0.03;;;17.70;99.90;;;;;;20719055;28;20226;-71
2021/12/10 13:34:08;;;;;;;0.20;0.10;;;17.70;99.90;;;;;;20704438;28;20230;-71
2021/12/10 13:44:55;;;;;;;0.20;0.10;;;17.60;99.90;;;;;;20709480;28;20230;-72
2021/12/10 13:55:42;;;;;;;0.20;0.10;;;17.40;99.90;;;;;;20710363;28;20909;-71
2021/12/10 14:06:43;;;;;;;0.20;0.10;;;17.30;99.90;;;;;;20709650;28;20559;-71
2021/12/10 14:17:30;;;;;;;0.20;0.10;;;17.30;99.90;;;;;;20710678;28;20327;-71
2021/12/10 14:28:39;;;;;;;0.20;0.07;;;17.30;99.90;;;;;;22455559;23;20653;-71
2021/12/10 14:40:03;;;;;;;0.20;0.10;;;17.20;99.90;;;;;;20964741;28;20204;-69
2021/12/10 14:51:02;;;;;;;0.20;0.10;;;17.00;99.90;;;;;;21018574;28;20735;-70
2021/12/10 15:02:19;;;;;;;0.20;0.07;;;16.80;99.90;;;;;;21035785;28;20279;-70
2021/12/10 15:13:27;;;;;;;0.20;0.00;;;16.80;99.90;;;;;;21033349;28;20231;-68
2021/12/10 15:24:38;;;;;;;0.20;0.10;;;16.70;99.90;;;;;;21003596;28;20218;-69
2021/12/10 15:35:30;;;;;;;0.20;0.10;;;16.50;99.90;;;;;;20962859;28;20220;-69
2021/12/10 15:46:18;;;;;;;0.20;0.10;;;16.40;99.90;;;;;;20962361;28;20207;-68
2021/12/10 15:57:36;;;;;;;0.20;0.10;;;16.20;99.90;;;;;;20962217;28;20756;-69
2021/12/10 16:08:20;;;;;;;0.20;0.10;;;15.80;99.90;;;;;;20961293;28;20193;-67
2021/12/10 16:19:09;;;;;;;0.20;0.10;;;15.50;99.90;;;;;;20879613;28;20530;-69
2021/12/10 16:29:56;;;;;;;0.20;0.10;;;15.40;99.90;;;;;;20922378;28;20272;-69
2021/12/10 16:40:45;;;;;;;0.20;0.10;;;15.20;99.90;;;;;;20971879;28;20212;-69
2021/12/10 16:51:33;;;;;;;0.20;0.10;;;14.50;99.90;;;;;;20968746;28;20646;-68
2021/12/10 17:02:22;;;;;;;0.20;0.00;;;13.90;99.90;;;;;;20966790;28;20228;-69
2021/12/10 17:13:10;;;;;;;0.20;0.10;;;13.30;99.90;;;;;;21004788;28;20262;-69
2021/12/10 17:23:57;;;;;;;0.20;0.00;;;13.00;99.90;;;;;;21047752;28;20196;-68
2021/12/10 17:34:45;;;;;;;0.20;0.00;;;12.80;99.90;;;;;;21048552;28;20239;-69
2021/12/10 17:45:35;;;;;;;0.20;0.00;;;12.80;99.90;;;;;;21048477;28;20188;-68
2021/12/10 17:56:19;;;;;;;0.20;0.10;;;12.70;99.90;;;;;;21051346;28;20220;-68
2021/12/10 18:07:08;;;;;;;0.20;0.10;;;12.30;99.90;;;;;;21049273;28;20554;-69
2021/12/10 18:17:58;;;;;;;0.20;0.00;;;13.20;99.90;;;;;;21050573;28;20249;-69
2021/12/10 18:28:49;;;;;;;0.20;0.10;;;13.40;99.90;;;;;;21037648;28;20718;-69
2021/12/10 18:39:37;;;;;;;0.20;0.10;;;13.00;99.90;;;;;;21049642;28;20247;-67
2021/12/10 18:50:27;;;;;;;0.20;0.10;;;12.60;99.90;;;;;;21051561;28;20196;-67
2021/12/10 19:01:14;;;;;;;0.20;0.13;;;12.40;99.90;;;;;;21066849;28;20202;-67
2021/12/10 19:12:05;;;;;;;0.20;0.00;;;12.10;99.90;;;;;;21066932;28;20269;-69
2021/12/10 19:22:53;;;;;;;0.20;0.10;;;12.10;99.90;;;;;;21063842;28;20200;-70
2021/12/10 19:33:41;;;;;;;0.20;0.10;;;11.70;99.90;;;;;;21058847;28;20235;-68
2021/12/10 19:44:28;;;;;;;0.20;0.10;;;11.20;99.90;;;;;;21062015;28;20207;-68
2021/12/10 19:55:19;;;;;;;0.20;0.10;;;10.70;99.90;;;;;;21061707;28;20527;-70
2021/12/10 20:06:08;;;;;;;0.20;0.03;;;10.50;99.90;;;;;;21071555;28;20211;-69
2021/12/10 20:16:57;;;;;;;0.20;0.10;;;10.30;99.90;;;;;;21073163;28;20216;-69
2021/12/10 20:27:45;;;;;;;0.20;0.10;;;9.90;99.90;;;;;;21063942;28;20875;-69
2021/12/10 20:38:36;;;;;;;0.20;0.10;;;9.90;99.90;;;;;;21039374;28;20216;-68
2021/12/10 20:49:25;;;;;;;0.20;0.00;;;9.70;99.90;;;;;;21060616;28;20653;-69
2021/12/10 21:00:16;;;;;;;0.20;0.10;;;9.40;99.90;;;;;;21059476;28;20306;-69
2021/12/10 21:11:08;;;;;;;0.20;0.10;;;9.20;99.90;;;;;;21056914;28;20188;-68
2021/12/10 21:22:00;;;;;;;0.20;0.10;;;8.90;99.90;;;;;;21058395;28;20218;-68
2021/12/10 21:32:50;;;;;;;0.20;0.10;;;9.00;99.90;;;;;;21058318;28;20767;-69
2021/12/10 21:43:40;;;;;;;0.20;0.10;;;9.20;99.90;;;;;;21057782;28;20341;-68
2021/12/10 21:54:33;;;;;;;0.20;0.10;;;9.30;99.90;;;;;;21050217;28;20220;-70
2021/12/10 22:05:22;;;;;;;0.20;0.07;;;9.10;99.90;;;;;;21053953;28;20274;-71
2021/12/10 22:16:34;;;;;;;0.20;0.10;;;9.50;99.90;;;;;;21054109;28;20306;-70
2021/12/10 22:27:40;;;;;;;0.20;0.10;;;9.90;99.90;;;;;;21050565;28;20235;-70
2021/12/10 22:38:30;;;;;;;0.20;0.10;;;9.90;99.90;;;;;;20905963;28;20640;-68
2021/12/10 22:49:22;;;;;;;0.20;0.10;;;9.70;99.90;;;;;;20871088;28;20205;-69
2021/12/10 23:00:15;;;;;;;0.20;0.10;;;9.20;99.90;;;;;;22366520;23;20263;-71
2021/12/10 23:11:05;;;;;;;0.20;0.10;;;8.50;99.90;;;;;;20693844;28;20820;-71
2021/12/10 23:21:50;;;;;;;0.20;0.10;;;8.30;99.90;;;;;;20707465;28;20198;-71
2021/12/10 23:32:40;;;;;;;0.20;0.10;;;8.10;99.90;;;;;;20707917;28;20598;-71
2021/12/10 23:43:27;;;;;;;0.20;0.10;;;8.00;99.90;;;;;;22379819;22;20246;-71
2021/12/10 23:54:17;;;;;;;0.20;0.10;;;8.00;99.90;;;;;;20803936;28;20241;-71
